createdAt,value
2024-03-06T00:00:58.184Z,41.20
2024-03-06T00:02:19.203Z,40.80
2024-03-06T00:02:58.156Z,42.00
2024-03-06T00:03:58.145Z,40.20
2024-03-06T00:04:58.153Z,40.30
2024-03-06T00:05:58.134Z,40.00
2024-03-06T00:06:58.102Z,39.30
2024-03-06T00:08:19.108Z,40.50
2024-03-06T00:08:58.069Z,39.00
2024-03-06T00:09:58.058Z,38.20
2024-03-06T00:10:58.111Z,37.80
2024-03-06T00:11:58.100Z,38.90
2024-03-06T00:12:58.017Z,41.20
2024-03-06T00:14:19.052Z,42.40
2024-03-06T00:14:57.997Z,40.90
2024-03-06T00:15:57.972Z,40.20
2024-03-06T00:16:58.011Z,40.10
2024-03-06T00:17:57.965Z,39.80
2024-03-06T00:18:57.934Z,39.10
2024-03-06T00:20:19.036Z,41.00
2024-03-06T00:20:57.899Z,40.80
2024-03-06T00:21:57.891Z,38.60
2024-03-06T00:22:57.915Z,38.70
2024-03-06T00:23:57.863Z,37.60
2024-03-06T00:24:57.844Z,38.00
2024-03-06T00:26:18.876Z,38.80
2024-03-06T00:26:57.893Z,38.20
2024-03-06T00:27:57.811Z,37.90
2024-03-06T00:28:57.857Z,38.30
2024-03-06T00:29:57.792Z,38.10
2024-03-06T00:30:57.775Z,40.00
2024-03-06T00:32:18.834Z,41.70
2024-03-06T00:32:57.761Z,40.10
2024-03-06T00:33:57.724Z,41.20
2024-03-06T00:34:57.734Z,38.70
2024-03-06T00:35:57.691Z,38.90
2024-03-06T00:36:57.674Z,38.70
2024-03-06T00:38:18.727Z,39.30
2024-03-06T00:38:57.679Z,39.30
2024-03-06T00:39:57.640Z,39.10
2024-03-06T00:40:57.628Z,39.00
2024-03-06T00:41:57.606Z,40.40
2024-03-06T00:42:57.590Z,41.70
2024-03-06T00:44:18.664Z,40.90
2024-03-06T00:44:57.558Z,40.20
2024-03-06T00:45:57.578Z,41.60
2024-03-06T00:46:57.650Z,41.30
2024-03-06T00:47:57.565Z,44.10
2024-03-06T00:48:57.555Z,41.40
2024-03-06T00:50:18.557Z,40.60
2024-03-06T00:50:57.495Z,39.60
2024-03-06T00:51:57.482Z,39.90
2024-03-06T00:52:57.537Z,40.60
2024-03-06T00:53:57.441Z,41.10
2024-03-06T00:54:57.526Z,41.60
2024-03-06T00:56:18.470Z,40.50
2024-03-06T00:56:57.383Z,41.90
2024-03-06T00:57:57.376Z,40.80
2024-03-06T00:58:57.389Z,39.60
2024-03-06T00:59:57.347Z,38.10
2024-03-06T01:00:57.358Z,38.60
2024-03-06T01:02:18.436Z,39.00
2024-03-06T01:02:57.301Z,38.10
2024-03-06T01:03:57.351Z,37.70
2024-03-06T01:04:57.307Z,37.30
2024-03-06T01:05:57.282Z,38.10
2024-03-06T01:06:57.248Z,38.30
2024-03-06T01:08:18.292Z,38.10
2024-03-06T01:08:57.213Z,38.20
2024-03-06T01:09:57.205Z,38.50
2024-03-06T01:10:57.348Z,39.70
2024-03-06T01:11:57.212Z,40.80
2024-03-06T01:12:57.176Z,40.60
2024-03-06T01:14:18.288Z,41.10
2024-03-06T01:14:57.122Z,40.40
2024-03-06T01:15:57.113Z,39.90
2024-03-06T01:16:57.169Z,38.50
2024-03-06T01:17:57.134Z,38.80
2024-03-06T01:18:57.097Z,38.60
2024-03-06T01:20:18.097Z,37.30
2024-03-06T01:20:57.036Z,38.20
2024-03-06T01:21:57.024Z,37.20
2024-03-06T01:22:57.047Z,37.90
2024-03-06T01:23:56.998Z,37.90
2024-03-06T01:24:56.980Z,37.20
2024-03-06T01:26:18.026Z,36.50
2024-03-06T01:26:56.958Z,36.30
2024-03-06T01:27:56.935Z,35.30
2024-03-06T01:28:56.973Z,36.00
2024-03-06T01:29:56.909Z,36.70
2024-03-06T01:30:56.948Z,38.10
2024-03-06T01:32:17.922Z,38.50
2024-03-06T01:32:56.965Z,38.30
2024-03-06T01:33:56.848Z,37.00
2024-03-06T01:34:56.851Z,37.80
2024-03-06T01:35:56.837Z,38.70
2024-03-06T01:36:56.804Z,39.70
2024-03-06T01:38:17.834Z,39.00
2024-03-06T01:38:56.774Z,38.50
2024-03-06T01:39:56.768Z,39.10
2024-03-06T01:40:56.770Z,39.10
2024-03-06T01:41:56.813Z,41.40
2024-03-06T01:42:56.713Z,40.80
2024-03-06T01:44:17.781Z,38.30
2024-03-06T01:44:56.699Z,36.80
2024-03-06T01:45:56.723Z,37.80
2024-03-06T01:46:56.721Z,37.90
2024-03-06T01:47:56.681Z,38.20
2024-03-06T01:48:56.625Z,41.40
2024-03-06T01:50:17.654Z,39.50
2024-03-06T01:50:56.606Z,42.30
2024-03-06T01:51:56.655Z,42.10
2024-03-06T01:52:56.584Z,41.30
2024-03-06T01:53:56.562Z,41.80
2024-03-06T01:54:56.540Z,42.90
2024-03-06T01:56:17.604Z,42.60
2024-03-06T01:56:56.509Z,42.10
2024-03-06T01:57:56.520Z,42.00
2024-03-06T01:58:58.361Z,42.60
2024-03-06T01:59:56.509Z,41.70
2024-03-06T02:00:56.485Z,41.70
2024-03-06T02:02:17.460Z,40.60
2024-03-06T02:02:56.458Z,40.00
2024-03-06T02:03:56.416Z,40.50
2024-03-06T02:04:56.491Z,39.70
2024-03-06T02:05:56.396Z,41.40
2024-03-06T02:06:56.369Z,42.40
2024-03-06T02:08:17.516Z,42.80
2024-03-06T02:08:56.341Z,43.60
2024-03-06T02:09:56.329Z,40.80
2024-03-06T02:10:56.353Z,41.70
2024-03-06T02:11:56.365Z,41.00
2024-03-06T02:12:56.316Z,44.10
2024-03-06T02:14:17.305Z,41.80
2024-03-06T02:14:56.251Z,43.90
2024-03-06T02:15:56.241Z,42.30
2024-03-06T02:16:56.262Z,44.80
2024-03-06T02:17:56.247Z,42.20
2024-03-06T02:18:56.192Z,43.60
2024-03-06T02:20:17.520Z,42.80
2024-03-06T02:20:56.175Z,42.20
2024-03-06T02:21:56.155Z,40.90
2024-03-06T02:22:56.149Z,40.80
2024-03-06T02:23:56.122Z,42.90
2024-03-06T02:24:56.102Z,42.90
2024-03-06T02:26:17.169Z,45.00
2024-03-06T02:26:56.078Z,45.10
2024-03-06T02:27:56.064Z,45.00
2024-03-06T02:28:56.085Z,43.50
2024-03-06T02:29:56.036Z,42.60
2024-03-06T02:30:56.023Z,43.10
2024-03-06T02:32:17.043Z,41.40
2024-03-06T02:32:56.045Z,41.60
2024-03-06T02:33:56.014Z,41.80
2024-03-06T02:34:55.990Z,42.00
2024-03-06T02:35:55.945Z,41.30
2024-03-06T02:36:55.932Z,44.60
2024-03-06T02:38:16.982Z,45.20
2024-03-06T02:38:55.929Z,42.50
2024-03-06T02:39:55.891Z,42.30
2024-03-06T02:40:55.922Z,40.50
2024-03-06T02:41:55.868Z,40.40
2024-03-06T02:42:55.844Z,40.60
2024-03-06T02:44:16.897Z,42.00
2024-03-06T02:44:55.815Z,43.70
2024-03-06T02:45:55.794Z,42.40
2024-03-06T02:46:55.859Z,42.10
2024-03-06T02:47:55.854Z,42.10
2024-03-06T02:48:55.757Z,40.60
2024-03-06T02:50:16.791Z,40.80
2024-03-06T02:50:55.734Z,38.90
2024-03-06T02:51:55.778Z,38.10
2024-03-06T02:52:55.786Z,39.00
2024-03-06T02:53:55.678Z,38.20
2024-03-06T02:54:55.669Z,38.70
2024-03-06T02:56:16.720Z,37.90
2024-03-06T02:56:55.643Z,38.30
2024-03-06T02:57:55.629Z,38.00
2024-03-06T02:58:55.678Z,38.00
2024-03-06T02:59:55.597Z,38.40
2024-03-06T03:00:55.620Z,40.70
2024-03-06T03:02:16.645Z,43.50
2024-03-06T03:02:55.556Z,42.40
2024-03-06T03:03:55.536Z,42.90
2024-03-06T03:04:55.588Z,44.50
2024-03-06T03:05:55.513Z,44.80
2024-03-06T03:06:55.490Z,44.10
2024-03-06T03:08:16.575Z,44.40
2024-03-06T03:08:55.459Z,45.10
2024-03-06T03:09:55.477Z,45.70
2024-03-06T03:10:55.449Z,45.30
2024-03-06T03:11:55.424Z,46.60
2024-03-06T03:12:55.402Z,46.70
2024-03-06T03:14:16.447Z,46.90
2024-03-06T03:14:55.375Z,47.10
2024-03-06T03:15:55.360Z,47.10
2024-03-06T03:16:55.365Z,45.50
2024-03-06T03:17:55.364Z,45.80
2024-03-06T03:18:55.313Z,46.80
2024-03-06T03:20:16.364Z,46.00
2024-03-06T03:20:55.276Z,45.10
2024-03-06T03:21:55.288Z,44.80
2024-03-06T03:22:55.283Z,43.10
2024-03-06T03:23:55.249Z,43.10
2024-03-06T03:24:55.260Z,41.70
2024-03-06T03:26:16.234Z,44.10
2024-03-06T03:26:55.197Z,44.10
2024-03-06T03:27:55.181Z,44.00
2024-03-06T03:28:55.180Z,45.70
2024-03-06T03:29:55.173Z,47.90
2024-03-06T03:30:55.135Z,47.90
2024-03-06T03:32:16.160Z,47.40
2024-03-06T03:32:55.119Z,46.30
2024-03-06T03:33:55.099Z,45.90
2024-03-06T03:34:55.108Z,47.00
2024-03-06T03:35:55.073Z,44.40
2024-03-06T03:36:55.053Z,44.00
2024-03-06T03:38:16.098Z,45.40
2024-03-06T03:38:55.017Z,43.70
2024-03-06T03:39:55.013Z,42.90
2024-03-06T03:40:54.996Z,41.50
2024-03-06T03:41:54.978Z,41.70
2024-03-06T03:42:55.018Z,42.30
2024-03-06T03:44:16.095Z,41.80
2024-03-06T03:44:54.951Z,43.10
2024-03-06T03:45:54.929Z,44.00
2024-03-06T03:46:54.977Z,44.80
2024-03-06T03:47:54.946Z,44.70
2024-03-06T03:48:54.883Z,45.00
2024-03-06T03:50:15.911Z,46.60
2024-03-06T03:50:54.834Z,45.20
2024-03-06T03:51:54.838Z,45.40
2024-03-06T03:52:54.887Z,46.10
2024-03-06T03:53:54.814Z,46.50
2024-03-06T03:54:54.780Z,48.20
2024-03-06T03:56:15.794Z,49.60
2024-03-06T03:56:54.754Z,48.40
2024-03-06T03:57:54.746Z,44.90
2024-03-06T03:58:54.748Z,41.40
2024-03-06T03:59:54.725Z,43.60
2024-03-06T04:00:54.711Z,44.10
2024-03-06T04:02:15.737Z,46.30
2024-03-06T04:02:54.679Z,46.30
2024-03-06T04:03:54.650Z,44.40
2024-03-06T04:04:54.694Z,42.80
2024-03-06T04:05:54.633Z,45.00
2024-03-06T04:06:54.611Z,46.80
2024-03-06T04:08:15.617Z,48.10
2024-03-06T04:08:54.587Z,47.70
2024-03-06T04:09:54.582Z,48.40
2024-03-06T04:10:54.575Z,46.60
2024-03-06T04:11:54.579Z,43.00
2024-03-06T04:12:54.521Z,42.10
2024-03-06T04:14:15.624Z,41.90
2024-03-06T04:14:54.479Z,42.20
2024-03-06T04:15:54.484Z,41.20
2024-03-06T04:16:54.475Z,42.00
2024-03-06T04:17:54.469Z,43.20
2024-03-06T04:18:54.422Z,41.70
2024-03-06T04:20:15.500Z,42.70
2024-03-06T04:20:54.394Z,43.10
2024-03-06T04:21:54.385Z,43.00
2024-03-06T04:22:54.401Z,41.40
2024-03-06T04:23:54.355Z,40.60
2024-03-06T04:24:54.337Z,42.80
2024-03-06T04:26:15.368Z,43.50
2024-03-06T04:26:54.308Z,44.90
2024-03-06T04:27:54.294Z,45.70
2024-03-06T04:28:54.307Z,43.20
2024-03-06T04:29:54.270Z,43.40
2024-03-06T04:30:54.257Z,44.70
2024-03-06T04:32:15.335Z,46.70
2024-03-06T04:32:54.245Z,48.00
2024-03-06T04:33:54.205Z,48.10
2024-03-06T04:34:54.276Z,46.80
2024-03-06T04:35:54.174Z,46.00
2024-03-06T04:36:54.186Z,46.40
2024-03-06T04:38:15.248Z,44.70
2024-03-06T04:38:54.129Z,43.30
2024-03-06T04:39:54.122Z,43.70
2024-03-06T04:40:54.186Z,45.00
2024-03-06T04:41:54.085Z,43.80
2024-03-06T04:42:54.075Z,43.90
2024-03-06T04:44:15.086Z,46.10
2024-03-06T04:44:54.047Z,47.10
2024-03-06T04:45:54.026Z,46.50
2024-03-06T04:46:54.018Z,46.80
2024-03-06T04:47:54.061Z,46.10
2024-03-06T04:48:53.985Z,45.70
2024-03-06T04:50:15.063Z,46.20
2024-03-06T04:50:53.955Z,44.00
2024-03-06T04:51:53.956Z,45.00
2024-03-06T04:52:53.937Z,44.50
2024-03-06T04:53:53.909Z,42.90
2024-03-06T04:54:53.884Z,44.20
2024-03-06T04:56:14.986Z,43.50
2024-03-06T04:56:53.856Z,42.90
2024-03-06T04:57:53.896Z,41.90
2024-03-06T04:58:53.858Z,43.40
2024-03-06T04:59:53.826Z,43.90
2024-03-06T05:00:53.840Z,45.50
2024-03-06T05:02:14.861Z,45.30
2024-03-06T05:58:08.894Z,46.10
2024-03-06T05:59:05.658Z,44.00
2024-03-06T06:01:09.698Z,43.80
2024-03-06T06:02:09.597Z,42.40
2024-03-06T06:04:13.572Z,40.20
2024-03-06T06:07:17.550Z,44.00
2024-03-06T06:08:17.546Z,42.10
2024-03-06T06:10:10.626Z,44.40
2024-03-06T06:11:10.714Z,43.30
2024-03-06T06:13:03.528Z,44.10
2024-03-06T06:14:03.595Z,44.70
2024-03-06T06:16:07.460Z,43.90
2024-03-06T06:17:07.508Z,43.00
2024-03-06T06:19:11.460Z,39.00
2024-03-06T06:20:11.498Z,37.40
2024-03-06T06:22:15.412Z,34.90
2024-03-06T06:23:15.402Z,34.20
2024-03-06T06:25:08.503Z,35.10
2024-03-06T06:26:08.474Z,33.80
2024-03-06T06:28:12.442Z,32.40
2024-03-06T06:29:12.601Z,30.80
2024-03-06T06:31:16.422Z,29.40
2024-03-06T06:32:16.454Z,29.70
2024-03-06T06:34:20.374Z,30.50
2024-03-06T06:35:20.372Z,30.10
2024-03-06T06:37:24.343Z,29.70
2024-03-06T06:38:24.354Z,30.50
2024-03-06T06:40:28.324Z,30.60
2024-03-06T06:41:28.356Z,28.70
2024-03-06T06:43:21.192Z,29.10
2024-03-06T06:44:21.203Z,28.70
2024-03-06T06:46:25.156Z,28.50
2024-03-06T06:47:25.175Z,26.90
2024-03-06T06:49:18.334Z,23.40
2024-03-06T06:50:18.283Z,22.30
2024-03-06T06:52:22.232Z,22.10
2024-03-06T06:53:22.258Z,23.10
2024-03-06T06:55:26.165Z,22.80
2024-03-06T06:56:26.167Z,24.70
2024-03-06T06:58:30.124Z,29.00
2024-03-06T06:59:30.131Z,27.90
2024-03-06T07:01:34.084Z,28.50
2024-03-06T07:02:34.105Z,27.20
2024-03-06T07:04:38.045Z,30.20
2024-03-06T07:05:38.081Z,30.30
2024-03-06T07:07:42.041Z,28.60
2024-03-06T07:08:42.073Z,29.90
2024-03-06T07:10:45.965Z,27.80
2024-03-06T07:11:46.006Z,28.90
2024-03-06T07:13:38.909Z,28.60
2024-03-06T07:14:38.882Z,29.90
2024-03-06T07:16:42.802Z,30.40
2024-03-06T07:17:42.860Z,30.30
2024-03-06T07:19:46.763Z,30.10
2024-03-06T07:20:46.811Z,29.80
2024-03-06T07:22:50.756Z,29.00
2024-03-06T07:23:50.734Z,29.50
2024-03-06T07:25:43.796Z,28.20
2024-03-06T07:26:43.788Z,28.60
2024-03-06T07:28:47.784Z,27.90
2024-03-06T07:29:47.811Z,27.90
2024-03-06T07:31:51.776Z,27.00
2024-03-06T07:32:51.721Z,26.70
2024-03-06T07:34:44.810Z,26.40
2024-03-06T07:35:44.807Z,26.00
2024-03-06T07:37:37.896Z,25.90
2024-03-06T07:38:37.880Z,25.50
2024-03-06T07:40:41.828Z,25.20
2024-03-06T07:41:41.849Z,24.80
2024-03-06T07:43:34.712Z,25.30
2024-03-06T07:44:34.750Z,25.10
2024-03-06T07:46:38.701Z,24.80
2024-03-06T07:47:38.816Z,24.80
2024-03-06T07:49:42.622Z,25.60
2024-03-06T07:50:42.671Z,25.80
2024-03-06T07:52:46.590Z,25.50
2024-03-06T07:53:46.584Z,25.30
2024-03-06T07:55:50.573Z,24.90
2024-03-06T07:56:50.547Z,25.00
2024-03-06T07:58:54.516Z,25.60
2024-03-06T07:59:54.498Z,24.50
2024-03-06T08:01:58.604Z,24.00
2024-03-06T08:02:58.461Z,24.10
2024-03-06T08:03:58.451Z,23.10
2024-03-06T08:04:58.470Z,23.30
2024-03-06T08:05:58.424Z,23.10
2024-03-06T08:06:58.408Z,22.90
2024-03-06T08:07:58.415Z,22.10
2024-03-06T08:09:00.391Z,21.40
2024-03-06T08:09:58.369Z,20.40
2024-03-06T08:10:58.420Z,21.00
2024-03-06T08:11:58.409Z,21.10
2024-03-06T08:12:58.331Z,20.60
2024-03-06T08:13:58.361Z,21.20
2024-03-06T08:14:58.302Z,20.90
2024-03-06T08:15:58.293Z,22.20
2024-03-06T08:16:58.374Z,21.10
2024-03-06T08:17:58.316Z,21.60
2024-03-06T08:18:58.245Z,22.60
2024-03-06T08:19:58.324Z,22.20
2024-03-06T08:20:58.248Z,22.10
2024-03-06T08:21:58.229Z,21.50
2024-03-06T08:22:58.240Z,21.10
2024-03-06T08:23:58.185Z,21.30
2024-03-06T08:24:58.193Z,21.30
2024-03-06T08:25:58.236Z,21.20
2024-03-06T08:26:58.144Z,20.40
2024-03-06T08:27:58.131Z,21.30
2024-03-06T08:28:58.135Z,20.80
2024-03-06T08:29:58.150Z,21.30
2024-03-06T08:30:58.091Z,20.70
2024-03-06T08:31:58.115Z,19.60
2024-03-06T08:32:58.260Z,19.90
2024-03-06T08:33:58.182Z,19.70
2024-03-06T08:34:58.036Z,18.70
2024-03-06T08:35:58.078Z,18.50
2024-03-06T08:36:58.022Z,19.30
2024-03-06T08:37:58.027Z,19.80
2024-03-06T08:38:57.993Z,19.50
2024-03-06T08:39:57.988Z,18.80
2024-03-06T08:40:58.050Z,17.70
2024-03-06T08:41:57.947Z,17.60
2024-03-06T08:42:57.937Z,17.40
2024-03-06T08:43:57.932Z,17.60
2024-03-06T08:44:57.908Z,18.00
2024-03-06T08:45:57.902Z,18.30
2024-03-06T08:46:57.922Z,18.80
2024-03-06T08:47:57.969Z,17.80
2024-03-06T08:48:59.798Z,17.60
2024-03-06T08:49:57.883Z,18.10
2024-03-06T08:50:57.833Z,17.60
2024-03-06T08:51:57.813Z,16.00
2024-03-06T08:52:57.899Z,15.40
2024-03-06T08:53:57.796Z,16.60
2024-03-06T08:54:57.779Z,16.70
2024-03-06T08:55:57.787Z,17.30
2024-03-06T08:56:57.758Z,15.70
2024-03-06T08:57:57.741Z,16.00
2024-03-06T08:58:57.743Z,16.40
2024-03-06T08:59:57.716Z,16.70
2024-03-06T09:00:57.717Z,15.80
2024-03-06T09:01:57.828Z,15.60
2024-03-06T09:02:57.675Z,15.00
2024-03-06T09:03:57.686Z,14.40
2024-03-06T09:04:57.693Z,14.10
2024-03-06T09:05:57.758Z,13.50
2024-03-06T09:06:57.625Z,13.30
2024-03-06T09:07:59.786Z,13.70
2024-03-06T09:08:57.669Z,13.60
2024-03-06T09:09:57.591Z,13.80
2024-03-06T09:10:57.728Z,13.60
2024-03-06T09:11:57.611Z,13.30
2024-03-06T09:12:57.551Z,13.10
2024-03-06T09:13:57.576Z,13.30
2024-03-06T09:14:57.538Z,13.20
2024-03-06T09:15:57.521Z,13.70
2024-03-06T09:16:57.523Z,13.10
2024-03-06T09:17:57.645Z,12.80
2024-03-06T09:18:57.482Z,13.10
2024-03-06T09:20:07.941Z,13.70
2024-03-06T09:20:57.483Z,10.90
2024-03-06T09:21:57.553Z,10.40
2024-03-06T09:22:57.437Z,10.40
2024-03-06T09:23:57.421Z,9.90
2024-03-06T09:24:57.407Z,9.80
2024-03-06T09:25:57.498Z,10.10
2024-03-06T09:26:57.379Z,9.30
2024-03-06T09:27:57.368Z,9.50
2024-03-06T09:28:57.413Z,9.90
2024-03-06T09:29:57.353Z,9.50
2024-03-06T09:30:57.331Z,9.80
2024-03-06T09:31:57.434Z,8.60
2024-03-06T09:32:57.428Z,8.90
2024-03-06T09:33:57.293Z,8.60
2024-03-06T09:34:57.393Z,9.00
2024-03-06T09:35:57.314Z,9.30
2024-03-06T09:36:57.264Z,8.70
2024-03-06T09:37:57.388Z,9.30
2024-03-06T09:38:57.271Z,10.00
2024-03-06T09:39:57.256Z,9.10
2024-03-06T09:40:57.282Z,9.60
2024-03-06T09:41:57.213Z,9.80
2024-03-06T09:42:57.209Z,9.00
2024-03-06T09:43:57.259Z,9.90
2024-03-06T09:44:57.171Z,10.70
2024-03-06T09:45:57.149Z,9.90
2024-03-06T09:46:57.149Z,9.90
2024-03-06T09:47:57.195Z,10.20
2024-03-06T09:48:57.112Z,10.10
2024-03-06T09:49:57.135Z,10.60
2024-03-06T09:50:57.093Z,10.30
2024-03-06T09:51:57.079Z,9.90
2024-03-06T09:52:57.097Z,9.60
2024-03-06T09:53:57.064Z,8.90
2024-03-06T09:54:57.404Z,9.30
2024-03-06T09:55:57.029Z,9.10
2024-03-06T09:56:57.057Z,8.80
2024-03-06T09:57:57.007Z,9.10
2024-03-06T09:58:57.002Z,9.60
2024-03-06T09:59:56.987Z,9.60
2024-03-06T10:00:57.016Z,10.10
2024-03-06T10:01:57.072Z,9.60
2024-03-06T10:02:56.954Z,9.00
2024-03-06T10:03:56.932Z,9.30
2024-03-06T10:04:56.917Z,9.50
2024-03-06T10:05:56.999Z,10.00
2024-03-06T10:06:56.917Z,9.30
2024-03-06T10:07:56.885Z,9.70
2024-03-06T10:08:56.870Z,9.20
2024-03-06T10:09:57.014Z,8.90
2024-03-06T10:10:56.873Z,9.40
2024-03-06T10:11:56.955Z,9.40
2024-03-06T10:12:57.242Z,9.50
2024-03-06T10:13:56.814Z,9.90
2024-03-06T10:14:56.798Z,9.40
2024-03-06T10:15:56.784Z,10.20
2024-03-06T10:16:56.778Z,10.00
2024-03-06T10:17:56.944Z,10.10
2024-03-06T10:18:56.753Z,10.00
2024-03-06T10:19:56.736Z,10.30
2024-03-06T10:20:56.744Z,9.60
2024-03-06T10:21:56.729Z,9.80
2024-03-06T10:22:59.204Z,9.80
2024-03-06T10:23:56.689Z,9.10
2024-03-06T10:24:56.688Z,9.10
2024-03-06T10:25:56.682Z,9.70
2024-03-06T10:26:56.662Z,9.30
2024-03-06T10:27:56.646Z,9.60
2024-03-06T10:28:56.639Z,9.20
2024-03-06T10:29:56.636Z,8.80
2024-03-06T10:30:56.615Z,8.80
2024-03-06T10:31:56.703Z,8.80
2024-03-06T10:32:56.660Z,9.20
2024-03-06T10:33:56.575Z,9.00
2024-03-06T10:34:56.566Z,9.40
2024-03-06T10:35:56.590Z,9.10
2024-03-06T10:36:56.562Z,9.50
2024-03-06T10:37:56.533Z,9.80
2024-03-06T10:38:56.528Z,9.40
2024-03-06T10:39:56.513Z,11.40
2024-03-06T10:40:56.499Z,11.60
2024-03-06T10:41:56.568Z,11.90
2024-03-06T10:42:56.475Z,12.00
2024-03-06T10:43:56.471Z,12.70
2024-03-06T10:44:56.469Z,12.80
2024-03-06T10:45:56.439Z,13.00
2024-03-06T10:46:56.435Z,13.60
2024-03-06T10:47:56.466Z,13.80
2024-03-06T10:48:56.548Z,14.00
2024-03-06T10:49:56.404Z,14.10
2024-03-06T10:50:56.407Z,15.20
2024-03-06T10:51:56.398Z,15.50
2024-03-06T10:52:56.383Z,15.70
2024-03-06T10:53:56.460Z,16.80
2024-03-06T10:54:56.344Z,17.10
2024-03-06T10:55:56.346Z,15.60
2024-03-06T10:56:56.327Z,16.20
2024-03-06T10:57:56.337Z,17.00
2024-03-06T10:58:56.297Z,16.80
2024-03-06T10:59:56.294Z,16.90
2024-03-06T11:00:56.271Z,16.60
2024-03-06T11:01:56.265Z,16.80
2024-03-06T11:02:56.254Z,16.60
2024-03-06T11:03:56.238Z,16.80
2024-03-06T11:04:56.227Z,17.20
2024-03-06T11:05:56.242Z,16.70
2024-03-06T11:06:56.202Z,15.90
2024-03-06T11:07:56.193Z,15.70
2024-03-06T11:08:56.181Z,14.00
2024-03-06T11:09:56.169Z,14.40
2024-03-06T11:10:56.186Z,13.80
2024-03-06T11:11:56.218Z,14.20
2024-03-06T11:12:56.135Z,13.60
2024-03-06T11:13:56.150Z,13.60
2024-03-06T11:14:56.121Z,13.30
2024-03-06T11:15:56.108Z,13.50
2024-03-06T11:16:56.087Z,14.30
2024-03-06T11:17:56.165Z,13.90
2024-03-06T11:18:56.079Z,13.30
2024-03-06T11:19:56.056Z,13.10
2024-03-06T11:20:56.060Z,13.70
2024-03-06T11:21:56.052Z,13.60
2024-03-06T11:22:56.024Z,14.80
2024-03-06T11:23:56.010Z,14.30
2024-03-06T11:24:56.008Z,13.90
2024-03-06T11:25:56.019Z,13.80
2024-03-06T11:26:55.996Z,13.90
2024-03-06T11:27:55.967Z,13.90
2024-03-06T11:28:55.953Z,14.40
2024-03-06T11:29:55.965Z,14.00
2024-03-06T11:30:55.929Z,14.10
2024-03-06T11:31:55.956Z,13.20
2024-03-06T11:32:56.025Z,13.60
2024-03-06T11:33:56.034Z,14.00
2024-03-06T11:34:55.917Z,13.20
2024-03-06T11:35:55.888Z,13.20
2024-03-06T11:36:55.862Z,12.10
2024-03-06T11:37:55.851Z,11.70
2024-03-06T11:38:55.840Z,11.80
2024-03-06T11:39:55.828Z,11.30
2024-03-06T11:40:55.814Z,10.60
2024-03-06T11:41:55.809Z,10.90
2024-03-06T11:42:55.794Z,10.70
2024-03-06T11:43:55.792Z,10.70
2024-03-06T11:44:55.811Z,10.70
2024-03-06T11:45:55.773Z,9.70
2024-03-06T11:46:55.762Z,12.20
2024-03-06T11:47:55.883Z,11.90
2024-03-06T11:48:55.760Z,13.60
2024-03-06T11:49:55.717Z,13.20
2024-03-06T11:50:55.791Z,13.10
2024-03-06T11:51:55.724Z,13.30
2024-03-06T11:52:55.683Z,13.40
2024-03-06T11:53:55.692Z,13.40
2024-03-06T11:54:55.665Z,13.90
2024-03-06T11:55:55.650Z,13.30
2024-03-06T11:56:55.644Z,13.30
2024-03-06T11:57:55.638Z,13.60
2024-03-06T11:58:55.610Z,12.80
2024-03-06T11:59:55.690Z,13.20
2024-03-06T12:00:55.624Z,12.50
2024-03-06T12:01:55.605Z,12.70
2024-03-06T12:02:55.625Z,12.20
2024-03-06T12:03:55.573Z,12.40
2024-03-06T12:04:55.567Z,12.80
2024-03-06T12:05:55.550Z,12.00
2024-03-06T12:06:55.532Z,12.60
2024-03-06T12:07:55.539Z,12.00
2024-03-06T12:08:55.517Z,11.50
2024-03-06T12:09:55.500Z,11.30
2024-03-06T12:10:55.512Z,11.60
2024-03-06T12:11:55.544Z,11.20
2024-03-06T12:12:55.477Z,10.80
2024-03-06T12:13:55.453Z,10.40
2024-03-06T12:14:55.474Z,10.70
2024-03-06T12:15:55.437Z,10.70
2024-03-06T12:16:55.439Z,10.70
2024-03-06T12:17:55.538Z,10.00
2024-03-06T12:18:55.400Z,9.90
2024-03-06T12:19:55.395Z,9.60
2024-03-06T12:20:55.420Z,10.70
2024-03-06T12:21:55.367Z,11.20
2024-03-06T12:22:55.357Z,11.50
2024-03-06T12:23:55.350Z,10.20
2024-03-06T12:24:55.337Z,10.40
2024-03-06T12:26:02.106Z,10.30
2024-03-06T12:26:55.345Z,10.70
2024-03-06T12:27:55.305Z,10.20
2024-03-06T12:28:55.296Z,10.10
2024-03-06T12:29:55.325Z,10.80
2024-03-06T12:30:55.269Z,10.20
2024-03-06T12:31:55.270Z,10.40
2024-03-06T12:32:55.330Z,9.60
2024-03-06T12:33:55.256Z,9.40
2024-03-06T12:34:55.236Z,9.40
2024-03-06T12:35:55.259Z,10.00
2024-03-06T12:36:55.218Z,9.80
2024-03-06T12:37:55.211Z,9.80
2024-03-06T12:38:55.192Z,10.30
2024-03-06T12:39:55.194Z,10.20
2024-03-06T12:40:55.172Z,9.80
2024-03-06T12:41:55.200Z,10.10
2024-03-06T12:42:55.154Z,10.90
2024-03-06T12:43:55.140Z,12.10
2024-03-06T12:44:55.127Z,10.80
2024-03-06T12:45:55.113Z,11.50
2024-03-06T12:46:55.108Z,11.20
2024-03-06T12:47:55.206Z,11.10
2024-03-06T12:48:55.085Z,11.50
2024-03-06T12:49:55.139Z,11.70
2024-03-06T12:50:55.119Z,12.50
2024-03-06T12:51:55.064Z,11.70
2024-03-06T12:52:55.060Z,11.60
2024-03-06T12:53:55.055Z,12.20
2024-03-06T12:54:55.024Z,12.50
2024-03-06T12:55:55.015Z,13.00
2024-03-06T12:56:55.002Z,12.70
2024-03-06T12:57:55.000Z,13.60
2024-03-06T12:58:54.985Z,13.40
2024-03-06T12:59:55.006Z,13.80
2024-03-06T13:00:55.050Z,14.50
2024-03-06T13:01:54.951Z,15.30
2024-03-06T13:02:54.963Z,16.10
2024-03-06T13:03:59.125Z,17.20
2024-03-06T13:04:54.918Z,17.20
2024-03-06T13:05:55.089Z,17.40
2024-03-06T13:06:54.912Z,16.80
2024-03-06T13:07:54.888Z,16.60
2024-03-06T13:08:54.884Z,16.30
2024-03-06T13:09:54.880Z,16.50
2024-03-06T13:10:54.907Z,15.90
2024-03-06T13:11:55.032Z,15.50
2024-03-06T13:12:54.839Z,15.10
2024-03-06T13:13:54.860Z,14.40
2024-03-06T13:14:54.866Z,14.70
2024-03-06T13:15:54.810Z,14.90
2024-03-06T13:16:54.800Z,14.60
2024-03-06T13:17:54.869Z,15.00
2024-03-06T13:18:54.777Z,15.10
2024-03-06T13:19:54.762Z,14.70
2024-03-06T13:20:54.777Z,15.10
2024-03-06T13:21:54.800Z,15.10
2024-03-06T13:22:54.733Z,14.90
2024-03-06T13:23:54.746Z,15.10
2024-03-06T13:24:54.716Z,15.10
2024-03-06T13:25:54.705Z,15.10
2024-03-06T13:26:54.713Z,15.10
2024-03-06T13:27:54.682Z,15.60
2024-03-06T13:28:54.674Z,14.60
2024-03-06T13:29:54.678Z,14.50
2024-03-06T13:30:54.658Z,15.70
2024-03-06T13:31:54.639Z,16.00
2024-03-06T13:32:54.679Z,15.80
2024-03-06T13:33:54.638Z,16.70
2024-03-06T13:34:54.610Z,16.30
2024-03-06T13:35:54.629Z,16.30
2024-03-06T13:36:54.590Z,15.80
2024-03-06T13:37:54.638Z,16.00
2024-03-06T13:38:54.603Z,15.80
2024-03-06T13:39:54.563Z,15.70
2024-03-06T13:40:54.548Z,15.60
2024-03-06T13:41:54.591Z,15.60
2024-03-06T13:42:54.529Z,16.20
2024-03-06T13:43:54.513Z,15.60
2024-03-06T13:44:54.514Z,16.40
2024-03-06T13:45:54.494Z,16.30
2024-03-06T13:46:54.489Z,16.00
2024-03-06T13:47:54.524Z,16.50
2024-03-06T13:48:54.458Z,16.00
2024-03-06T13:49:54.447Z,17.00
2024-03-06T13:50:54.467Z,17.00
2024-03-06T13:51:54.427Z,16.50
2024-03-06T13:52:54.416Z,17.40
2024-03-06T13:53:54.482Z,17.60
2024-03-06T13:54:54.402Z,17.60
2024-03-06T13:55:54.401Z,18.40
2024-03-06T13:56:54.377Z,17.50
2024-03-06T13:57:54.364Z,18.00
2024-03-06T13:58:54.362Z,16.90
2024-03-06T13:59:54.385Z,18.90
2024-03-06T14:00:54.402Z,16.40
2024-03-06T14:01:54.319Z,17.20
2024-03-06T14:02:54.340Z,17.10
2024-03-06T14:03:54.300Z,15.70
2024-03-06T14:04:54.286Z,15.80
2024-03-06T14:05:54.329Z,14.80
2024-03-06T14:06:54.266Z,14.80
2024-03-06T14:07:54.263Z,15.10
2024-03-06T14:08:54.322Z,14.70
2024-03-06T14:09:54.249Z,14.80
2024-03-06T14:10:54.256Z,14.70
2024-03-06T14:11:54.324Z,15.00
2024-03-06T14:12:54.212Z,16.30
2024-03-06T14:13:54.193Z,16.30
2024-03-06T14:14:54.227Z,17.00
2024-03-06T14:15:54.177Z,17.00
2024-03-06T14:16:54.172Z,17.90
2024-03-06T14:17:54.267Z,17.50
2024-03-06T14:18:54.141Z,17.90
2024-03-06T14:19:54.136Z,18.50
2024-03-06T14:20:54.184Z,18.10
2024-03-06T14:21:54.110Z,19.40
2024-03-06T14:22:54.098Z,18.70
2024-03-06T14:23:54.102Z,19.40
2024-03-06T14:24:54.076Z,18.10
2024-03-06T14:25:54.079Z,18.30
2024-03-06T14:26:54.056Z,18.40
2024-03-06T14:27:54.043Z,18.60
2024-03-06T14:28:54.035Z,19.00
2024-03-06T14:29:54.079Z,19.20
2024-03-06T14:30:54.028Z,19.30
2024-03-06T14:31:54.001Z,19.40
2024-03-06T14:32:54.053Z,19.80